This is the latest recevied weather packets stored in our database for station/object DG0PX-12. If no packets are shown the sender has not sent any weather packets the latest 10 day(s).
| Time | Temp. | Humidity | Pressure | Rain* | Wind** | Luminosity | Snow |
|---|---|---|---|---|---|---|---|
| 1777560263 | 19.44° C | 15% | 958.1 hPa | - | - | - | - |
| 1777559363 | 17.22° C | 17% | 957.9 hPa | - | - | - | - |
| 1777558463 | 15° C | 17% | 958 hPa | - | - | - | - |
| 1777557563 | 17.78° C | 16% | 957.9 hPa | - | - | - | - |
| 1777556663 | 16.11° C | 16% | 958.2 hPa | - | - | - | - |
| 1777555763 | 15.56° C | 17% | 958.2 hPa | - | - | - | - |
| 1777554862 | 17.22° C | 17% | 958.3 hPa | - | - | - | - |
| 1777553962 | 16.67° C | 17% | 958.3 hPa | - | - | - | - |
| 1777553062 | 15° C | 19% | 958.2 hPa | - | - | - | - |
| 1777552162 | 17.78° C | 17% | 958.4 hPa | - | - | - | - |
| 1777551262 | 16.67° C | 18% | 958.4 hPa | - | - | - | - |
| 1777550362 | 16.67° C | 18% | 958.5 hPa | - | - | - | - |
| 1777549461 | 16.11° C | 18% | 958.5 hPa | - | - | - | - |
| 1777548561 | 13.89° C | 19% | 958.4 hPa | - | - | - | - |
| 1777547661 | 15.56° C | 18% | 958.7 hPa | - | - | - | - |
| 1777546761 | 13.89° C | 20% | 958.7 hPa | - | - | - | - |
| 1777545861 | 13.33° C | 21% | 958.7 hPa | - | - | - | - |
| 1777544961 | 12.22° C | 23% | 958.8 hPa | - | - | - | - |
| 1777544060 | 12.78° C | 24% | 958.8 hPa | - | - | - | - |
| 1777543160 | 11.11° C | 29% | 958.8 hPa | - | - | - | - |
| 1777542260 | 10° C | 32% | 958.8 hPa | - | - | - | - |
| 1777541360 | 11.11° C | 31% | 958.8 hPa | - | - | - | - |
| 1777540460 | 10° C | 33% | 958.8 hPa | - | - | - | - |
| 1777539560 | 9.44° C | 33% | 958.9 hPa | - | - | - | - |
| 1777538660 | 8.89° C | 34% | 958.8 hPa | - | - | - | - |
* Rain since midnight (hover to see other rain measurements)
** Current wind speed in m/s (hover to see current wind gust speed)